Latest Weather Observations for Daly Waters

IDD60801

Issued at 6:33 pm CST Friday 6 March 2015 (issued every 30 minutes, with the page automatically refreshed every 10 minutes)

About weather observations | Map of weather stations | Latest weather observations for NT | Other Formats
Station Details ID: 014626 Name: DALY WATERS AIRSTRIP Lat: -16.26 Lon: 133.38 Height: 209.84 m
Data from the previous 72 hours. | See also: Recent months at Daly Waters
Date/Time
CST
Temp
°C
App
Temp
°C
Dew
Point
Rel
Hum
%
Delta-T
°C
Wind Press
QNH
hPa
Press
MSL
hPa
Rain
since 9 am
mm
Dir
 
Spd
km/h
Gust
km/h
Spd
kts
Gust
kts
06/06:30pm 31.6 35.1 19.6 49 8.0 CALM 0 2 0 1 1005.2 1003.7 0.0
06/06:00pm 31.1 33.5 18.8 48 8.1 E 4 7 2 4 1005.1 1003.6 0.0
06/05:30pm 31.4 34.5 19.4 49 7.9 E 2 6 1 3 1005.1 1003.6 0.0
06/05:00pm 30.2 30.1 19.6 53 7.0 NE 19 32 10 17 1005.2 1003.7 0.0
06/04:38pm 31.4 30.1 16.9 41 9.3 E 19 37 10 20 1005.1 1003.6 0.0
06/04:30pm 37.0 37.2 17.6 32 12.7 SSE 13 28 7 15 1004.6 1003.1 0.0
06/04:00pm 36.8 37.3 17.4 32 12.7 ESE 11 24 6 13 1004.8 1003.3 0.0
06/03:30pm 36.9 37.8 18.4 33 12.3 SSE 11 24 6 13 1005.4 1003.9 0.0
06/03:00pm 37.5 39.2 18.5 32 12.6 SE 7 13 4 7 1005.7 1004.2 0.0
06/02:30pm 36.6 37.6 17.7 32 12.4 SSW 9 17 5 9 1006.0 1004.5 0.0
06/02:00pm 36.5 36.8 17.1 31 12.6 SE 11 19 6 10 1006.4 1004.9 0.0
06/01:30pm 36.5 37.2 17.1 31 12.6 ESE 9 19 5 10 1006.7 1005.2 0.0
06/01:00pm 36.5 36.5 17.1 31 12.6 ESE 13 24 7 13 1007.0 1005.5 0.0
06/12:30pm 36.3 36.8 16.5 31 12.8 E 9 17 5 9 1007.5 1006.0 0.0
06/12:00pm 36.6 36.8 17.7 32 12.4 ESE 13 26 7 14 1008.0 1006.6 0.0
06/11:30am 35.8 36.1 16.0 30 12.7 SSE 9 19 5 10 1008.3 1006.9 0.0
06/11:00am 35.0 35.2 15.8 31 12.2 SSW 9 17 5 9 1008.7 1007.2 0.0
06/10:30am 34.3 34.9 15.2 31 12.0 SSE 6 13 3 7 1009.0 1007.5 0.0
06/10:00am 33.3 34.3 15.3 34 11.3 ENE 4 6 2 3 1009.0 1007.5 0.0
06/09:30am 32.9 34.7 17.5 39 10.0 ESE 4 6 2 3 1009.2 1007.7 0.0
06/09:00am 31.7 34.6 18.3 45 8.7 CALM 0 0 0 0 1009.2 1007.7 0.0
06/08:30am 30.3 34.3 20.5 55 6.6 CALM 0 0 0 0 1009.1 1007.6 0.0
06/08:00am 27.8 32.0 21.8 70 4.1 ESE 2 4 1 2 1009.1 1007.6 0.0
06/07:30am 25.2 29.2 22.1 83 2.1 ESE 4 6 2 3 1008.8 1007.3 0.0
06/07:00am 23.5 27.8 21.2 87 1.5 CALM 0 0 0 0 1008.2 1006.8 0.0
06/06:30am 23.6 27.5 21.1 86 1.7 ESE 2 4 1 2 1008.2 1006.8 0.0
06/06:00am 23.8 28.3 21.5 87 1.5 CALM 0 0 0 0 1008.0 1006.6 0.0
06/05:30am 23.5 27.7 21.0 86 1.7 CALM 0 0 0 0 1007.9 1006.5 0.0
06/05:00am 24.0 28.5 21.5 86 1.7 CALM 0 0 0 0 1007.7 1006.3 0.0
06/04:30am 24.2 28.6 21.3 84 1.9 CALM 0 0 0 0 1007.9 1006.5 0.0
06/04:00am 24.5 29.0 21.6 84 1.9 CALM 0 0 0 0 1008.1 1006.7 0.0
06/03:30am 24.9 29.6 22.0 84 2.0 CALM 0 0 0 0 1007.8 1006.4 0.0
06/03:00am 24.8 29.3 21.5 82 2.2 CALM 0 0 0 0 1007.8 1006.4 0.0
06/02:30am 25.2 29.3 21.5 80 2.5 E 2 2 1 1 1007.9 1006.5 0.0
06/02:00am 25.3 29.4 21.6 80 2.5 E 2 4 1 2 1008.3 1006.9 0.0
06/01:30am 25.2 29.8 21.7 81 2.3 CALM 0 0 0 0 1008.8 1007.3 0.0
06/01:00am 25.7 29.5 21.6 78 2.7 ENE 4 6 2 3 1009.1 1007.6 0.0
06/12:30am 26.0 30.4 21.4 76 3.1 CALM 0 0 0 0 1009.2 1007.7 0.0
06/12:00am 27.0 31.4 21.3 71 3.8 CALM 0 0 0 0 1009.5 1008.0 0.0
 
Date/Time
CST
Temp
°C
App
Temp
°C
Dew
Point
Rel
Hum
%
Delta-T
°C
Wind Press
QNH
hPa
Press
MSL
hPa
Rain
since 9 am
mm
Dir
 
Spd
km/h
Gust
km/h
Spd
kts
Gust
kts
05/11:30pm 28.1 32.5 21.4 67 4.5 CALM 0 2 0 1 1009.7 1008.2 0.0
05/11:00pm 29.4 32.6 20.5 58 5.9 ENE 4 6 2 3 1009.9 1008.4 0.0
05/10:30pm 29.3 33.1 21.0 61 5.6 E 2 4 1 2 1009.5 1008.0 0.0
05/10:00pm 30.1 32.3 19.2 52 7.1 ENE 6 7 3 4 1009.0 1007.5 0.0
05/09:30pm 30.1 33.0 19.8 54 6.8 ENE 4 7 2 4 1008.8 1007.3 0.0
05/09:00pm 29.9 34.1 21.0 59 6.0 CALM 0 0 0 0 1008.4 1007.0 0.0
05/08:30pm 29.8 33.8 20.6 57 6.2 CALM 0 0 0 0 1007.9 1006.5 0.0
05/08:00pm 30.4 33.7 20.0 53 6.9 ESE 2 4 1 2 1007.6 1006.1 0.0
05/07:30pm 30.9 33.6 18.6 48 8.0 ESE 2 4 1 2 1007.0 1005.5 0.0
05/07:00pm 33.6 34.7 15.6 34 11.3 ESE 4 6 2 3 1006.5 1005.0 0.0
05/06:30pm 35.6 35.6 14.3 28 13.3 ESE 7 13 4 7 1006.2 1004.7 0.0
05/06:00pm 36.6 35.8 14.0 26 14.1 E 11 20 6 11 1005.9 1004.4 0.0
05/05:30pm 37.1 34.5 13.2 24 14.8 ESE 19 28 10 15 1005.7 1004.2 0.0
05/05:00pm 37.7 36.0 13.7 24 14.9 ESE 15 28 8 15 1005.7 1004.2 0.0
05/04:30pm 38.5 38.0 15.0 25 15.0 ESE 11 20 6 11 1005.8 1004.3 0.0
05/04:00pm 36.5 36.0 15.0 27 13.6 SE 11 17 6 9 1006.0 1004.5 0.0
05/03:30pm 35.7 35.8 16.4 31 12.4 SE 11 17 6 9 1006.4 1004.9 0.0
05/03:00pm 37.8 38.0 16.7 29 13.7 SE 11 20 6 11 1006.6 1005.1 0.0
05/02:30pm 36.0 36.6 16.7 31 12.5 ESE 9 17 5 9 1007.3 1005.8 0.0
05/02:00pm 36.9 38.2 17.0 31 12.9 ENE 6 13 3 7 1007.7 1006.3 0.0
05/01:30pm 37.2 38.3 17.2 30 13.0 ESE 7 17 4 9 1008.4 1007.0 0.0
05/01:00pm 35.9 36.6 17.1 32 12.2 NE 9 17 5 9 1009.0 1007.5 0.0
05/12:30pm 36.1 37.5 17.3 33 12.2 SSE 6 15 3 8 1009.4 1007.9 0.0
05/12:00pm 35.8 37.1 17.0 32 12.2 E 6 11 3 6 1010.0 1008.5 0.0
05/11:30am 34.9 36.0 16.7 34 11.7 ESE 6 11 3 6 1010.5 1009.0 0.0
05/11:00am 34.4 35.0 15.8 33 11.8 ENE 7 15 4 8 1010.8 1009.3 0.0
05/10:30am 33.9 35.2 17.2 37 10.8 E 6 7 3 4 1011.1 1009.6 0.0
05/10:00am 32.8 35.8 19.3 45 8.9 E 2 6 1 3 1011.2 1009.7 0.0
05/09:30am 31.3 34.1 19.6 49 7.7 ENE 4 7 2 4 1011.2 1009.7 0.0
05/09:00am 30.4 33.1 19.4 51 7.2 ENE 4 6 2 3 1011.3 1009.8 0.0
05/08:30am 28.7 33.0 21.2 64 5.0 CALM 0 2 0 1 1011.3 1009.8 0.0
05/08:00am 26.5 31.0 21.5 74 3.4 CALM 0 0 0 0 1010.7 1009.2 0.0
05/07:30am 24.3 29.0 22.0 87 1.5 CALM 0 0 0 0 1010.6 1009.1 0.0
05/07:00am 22.6 26.6 20.5 88 1.4 CALM 0 0 0 0 1010.2 1008.7 0.0
05/06:30am 22.3 26.2 20.4 89 1.2 CALM 0 0 0 0 1009.9 1008.4 0.0
05/06:00am 22.6 26.5 20.3 87 1.5 CALM 0 0 0 0 1009.6 1008.1 0.0
05/05:30am 22.6 26.6 20.5 88 1.4 CALM 0 0 0 0 1009.5 1008.0 0.0
05/05:00am 23.0 27.2 20.9 88 1.4 CALM 0 0 0 0 1009.3 1007.8 0.0
05/04:30am 22.9 26.9 20.6 87 1.5 CALM 0 0 0 0 1009.1 1007.6 0.0
05/04:00am 23.2 27.4 20.9 87 1.5 CALM 0 0 0 0 1008.8 1007.3 0.0
05/03:30am 23.5 27.8 21.2 87 1.5 CALM 0 0 0 0 1008.9 1007.4 0.0
05/03:00am 23.6 27.5 21.1 86 1.7 ESE 2 2 1 1 1008.9 1007.4 0.0
05/02:30am 24.0 28.4 21.3 85 1.8 CALM 0 0 0 0 1009.4 1007.9 0.0
05/02:00am 24.1 28.5 21.4 85 1.8 CALM 0 0 0 0 1009.9 1008.4 0.0
05/01:30am 24.3 28.8 21.6 85 1.8 CALM 0 0 0 0 1010.1 1008.6 0.0
05/01:00am 24.6 29.2 21.7 84 1.9 CALM 0 0 0 0 1010.4 1008.9 0.0
05/12:30am 25.3 30.0 22.0 82 2.2 CALM 0 0 0 0 1010.6 1009.1 0.0
05/12:00am 25.6 30.4 22.1 81 2.4 CALM 0 0 0 0 1011.1 1009.6 0.0
 
Date/Time
CST
Temp
°C
App
Temp
°C
Dew
Point
Rel
Hum
%
Delta-T
°C
Wind Press
QNH
hPa
Press
MSL
hPa
Rain
since 9 am
mm
Dir
 
Spd
km/h
Gust
km/h
Spd
kts
Gust
kts
04/11:30pm 25.9 30.5 21.8 78 2.8 CALM 0 0 0 0 1011.1 1009.6 0.0
04/11:00pm 26.9 31.6 21.9 74 3.4 CALM 0 0 0 0 1011.0 1009.5 0.0
04/10:30pm 27.2 31.9 21.9 73 3.6 CALM 0 0 0 0 1010.9 1009.4 0.0
04/10:00pm 27.6 31.9 21.2 68 4.3 CALM 0 4 0 2 1010.8 1009.3 0.0
04/09:30pm 27.7 32.1 21.3 68 4.3 CALM 0 0 0 0 1010.6 1009.1 0.0
04/09:00pm 27.9 31.2 20.7 65 4.8 ENE 4 6 2 3 1010.0 1008.5 0.0
04/08:30pm 28.3 31.4 20.3 62 5.3 ENE 4 7 2 4 1009.7 1008.2 0.0
04/08:00pm 29.0 30.8 19.6 57 6.2 NE 9 13 5 7 1009.4 1007.9 0.0
04/07:30pm 29.9 31.6 19.3 53 7.0 NE 9 15 5 8 1009.2 1007.7 0.0
04/07:00pm 30.3 32.0 19.3 51 7.2 ENE 9 15 5 8 1008.5 1007.1 0.0
04/06:30pm 31.2 32.5 19.2 48 7.9 ENE 11 17 6 9 1007.8 1006.4 0.0
04/06:00pm 33.0 35.6 20.5 47 8.4 ENE 7 9 4 5 1007.6 1006.1 0.0
04/05:30pm 33.7 35.9 19.7 43 9.4 ENE 7 9 4 5 1007.3 1005.8 0.0
04/05:00pm 34.5 36.0 18.9 39 10.3 E 9 15 5 8 1007.0 1005.5 0.0
04/04:30pm 34.8 34.9 18.4 38 10.8 NE 15 20 8 11 1007.0 1005.5 0.0
04/04:00pm 35.8 35.7 17.0 32 12.2 ENE 13 20 7 11 1007.1 1005.6 0.0
04/03:30pm 35.7 36.0 16.9 32 12.2 ENE 11 22 6 12 1007.3 1005.8 0.0
04/03:00pm 34.5 35.5 17.7 37 10.9 ESE 9 17 5 9 1007.7 1006.3 0.0
04/02:30pm 35.3 35.8 17.5 34 11.6 NE 11 22 6 12 1007.7 1006.3 0.0
04/02:00pm 37.1 36.7 17.1 30 13.0 ENE 15 26 8 14 1008.0 1006.6 0.0
04/01:30pm 36.2 36.3 17.4 33 12.3 E 13 24 7 13 1008.7 1007.2 0.0
04/01:00pm 36.6 37.4 18.2 34 12.1 ENE 11 22 6 12 1009.3 1007.8 0.0
04/12:30pm 36.2 36.7 19.2 37 11.4 E 15 26 8 14 1009.7 1008.2 0.0
04/12:00pm 35.4 37.5 20.1 40 10.3 E 9 19 5 10 1009.9 1008.4 0.0
04/11:30am 34.3 35.9 19.9 42 9.7 E 11 19 6 10 1010.2 1008.7 0.0
04/11:00am 33.7 36.7 21.2 48 8.5 E 7 17 4 9 1010.5 1009.0 0.0
04/10:30am 32.9 35.4 21.1 50 8.0 E 9 20 5 11 1010.8 1009.3 0.0
04/10:00am 31.7 34.9 22.4 58 6.4 ENE 9 13 5 7 1010.9 1009.4 0.0
04/09:30am 30.8 34.0 22.4 61 5.8 ENE 9 19 5 10 1010.9 1009.4 0.0
04/09:00am 30.0 33.4 22.7 65 5.0 ENE 9 13 5 7 1010.8 1009.3 0.0
04/08:30am 28.7 32.5 23.4 73 3.7 ENE 9 17 5 9 1010.8 1009.3 0.0
04/08:00am 27.1 30.5 22.7 77 3.0 ENE 9 13 5 7 1010.6 1009.1 0.0
04/07:30am 25.3 29.2 22.6 85 1.8 E 6 7 3 4 1010.3 1008.8 0.0
04/07:00am 23.1 27.3 21.0 88 1.4 CALM 0 0 0 0 1009.9 1008.4 0.0
04/06:30am 22.8 25.9 20.3 86 1.6 ESE 4 6 2 3 1009.5 1008.0 0.0
04/06:00am 23.1 27.0 20.4 85 1.8 CALM 0 2 0 1 1009.2 1007.7 0.0
04/05:30am 23.6 27.6 20.5 83 2.0 CALM 0 0 0 0 1008.8 1007.3 0.0
04/05:00am 24.2 28.3 20.7 81 2.3 CALM 0 0 0 0 1008.4 1007.0 0.0
04/04:30am 25.3 29.2 21.2 78 2.7 E 2 2 1 1 1008.1 1006.7 0.0
04/04:00am 25.7 29.2 21.1 76 3.1 ENE 4 6 2 3 1008.0 1006.6 0.0
04/03:30am 26.0 29.8 21.0 74 3.3 ENE 2 4 1 2 1008.1 1006.7 0.0
04/03:00am 26.2 30.0 21.0 73 3.5 E 2 4 1 2 1008.4 1007.0 0.0
04/02:30am 26.3 29.9 20.6 71 3.8 E 2 6 1 3 1008.5 1007.1 0.0
04/02:00am 26.4 29.2 20.5 70 3.9 ENE 6 6 3 3 1008.7 1007.2 0.0
04/01:30am 27.2 30.0 20.5 67 4.4 ENE 6 11 3 6 1008.8 1007.3 0.0
04/01:00am 27.5 30.7 20.6 66 4.6 E 4 7 2 4 1009.1 1007.6 0.0
04/12:30am 28.0 30.7 20.3 63 5.1 E 6 7 3 4 1009.5 1008.0 0.0
04/12:00am 28.0 30.4 20.0 61 5.3 E 7 11 4 6 1009.5 1008.0 0.0
 
Date/Time
CST
Temp
°C
App
Temp
°C
Dew
Point
Rel
Hum
%
Delta-T
°C
Wind Press
QNH
hPa
Press
MSL
hPa
Rain
since 9 am
mm
Dir
 
Spd
km/h
Gust
km/h
Spd
kts
Gust
kts
03/11:30pm 28.3 31.0 20.3 62 5.3 E 6 9 3 5 1009.6 1008.1 0.0
03/11:00pm 28.3 30.8 20.3 62 5.3 E 7 9 4 5 1009.6 1008.1 0.0
03/10:30pm 28.1 30.7 20.1 62 5.3 E 6 7 3 4 1009.5 1008.0 0.0
03/10:00pm 28.1 30.9 20.4 63 5.1 E 6 7 3 4 1009.5 1008.0 0.0
03/09:30pm 28.8 31.4 20.0 59 5.8 E 6 9 3 5 1009.1 1007.6 0.0
03/09:00pm 29.5 32.3 20.4 58 6.1 ENE 6 9 3 5 1008.9 1007.4 0.0
03/08:30pm 29.9 32.8 21.0 59 6.0 ENE 7 13 4 7 1008.7 1007.2 0.0
03/08:00pm 29.2 33.9 21.9 64 5.0 CALM 0 0 0 0 1008.3 1006.9 0.0
03/07:30pm 30.1 33.7 21.2 59 6.0 ESE 4 6 2 3 1007.8 1006.4 0.0
03/07:00pm 32.0 34.5 20.3 50 7.8 ENE 7 13 4 7 1007.2 1005.7 0.0

Other Formats:

Comma delimited format used in spreadsheet applications
http://www.bom.gov.au/fwo/IDD60801/IDD60801.94234.axf

JavaScript Object Notation format (JSON) in row-major order
http://www.bom.gov.au/fwo/IDD60801/IDD60801.94234.json